Malaysia Virtual Airlines Airport Information Service

Singapore Changi Airport

ICAO: WSSS Country: Singapore
Latitude: 1.35019 Longitude: 103.994
Latest Arrival : TH382 (WMSA-WSSS) Latest Departure : MH9028 (WSSS-WMKP)


WX CaptureLIVE
Data provided by noaa.gov | Fetched at 07:21:45

METAR : WSSS 160630Z 17005KT 9999 FEW018CB FEW020TCU BKN270 30/25 Q1010 NOSIG

TAF : WSSS 160500Z 1606/1712 22005KT 9999 FEW015 SCT020 TEMPO 1606/1608 3000 TSRA FEW012CB BKN015 PROB30 TEMPO 1700/1703 3000 TSRA FEW012CB BKN015


Runway Data for WSSS
Data provided by openaviationdata.com

Runway ID Mag Var Hdg Length Elevation Surface ILS Freq ILS Id ILS Slope
02L 0 22° 13152 ft 22 ft Bituminous 110.9 ICW 3
02C 0 22° 13179 ft 22 ft Bituminous 108.3 ICE 3
20R 0 202° 13152 ft 22 ft Bituminous 108.9 ICH 3
20C 0 202° 13179 ft 22 ft Bituminous 109.7 ICC 3

Singapore Changi Airport, Singapore
Use only for reference purposes



Not for navigational purposes.